sensor_id;sensor_type;location;lat;lon;timestamp;pressure;altitude;pressure_sealevel;temperature;humidity
64844;BME280;51310;52.198;5.422;2022-08-19T00:01:56;101155.25;;;17.13;100.00
64844;BME280;51310;52.198;5.422;2022-08-19T00:04:29;101160.91;;;17.19;100.00
64844;BME280;51310;52.198;5.422;2022-08-19T00:06:59;101153.09;;;17.07;100.00
64844;BME280;51310;52.198;5.422;2022-08-19T00:09:25;101156.38;;;17.05;100.00
64844;BME280;51310;52.198;5.422;2022-08-19T00:11:53;101174.31;;;17.01;100.00
64844;BME280;51310;52.198;5.422;2022-08-19T00:14:22;101167.06;;;16.97;100.00
64844;BME280;51310;52.198;5.422;2022-08-19T00:16:50;101170.47;;;16.96;100.00
64844;BME280;51310;52.198;5.422;2022-08-19T00:19:20;101168.56;;;16.94;100.00
64844;BME280;51310;52.198;5.422;2022-08-19T00:21:46;101174.31;;;16.90;100.00
64844;BME280;51310;52.198;5.422;2022-08-19T00:24:14;101169.94;;;16.78;100.00
64844;BME280;51310;52.198;5.422;2022-08-19T00:26:42;101164.50;;;16.75;100.00
64844;BME280;51310;52.198;5.422;2022-08-19T00:29:11;101163.81;;;16.78;100.00
64844;BME280;51310;52.198;5.422;2022-08-19T00:31:39;101168.25;;;16.79;100.00
64844;BME280;51310;52.198;5.422;2022-08-19T00:34:07;101165.00;;;16.81;100.00
64844;BME280;51310;52.198;5.422;2022-08-19T00:36:33;101160.19;;;16.76;100.00
64844;BME280;51310;52.198;5.422;2022-08-19T00:39:00;101166.53;;;16.68;100.00
64844;BME280;51310;52.198;5.422;2022-08-19T00:41:26;101156.22;;;16.69;100.00
64844;BME280;51310;52.198;5.422;2022-08-19T00:44:12;101156.91;;;16.67;100.00
64844;BME280;51310;52.198;5.422;2022-08-19T00:46:48;101159.97;;;16.73;100.00
64844;BME280;51310;52.198;5.422;2022-08-19T00:49:20;101146.50;;;16.67;100.00
64844;BME280;51310;52.198;5.422;2022-08-19T00:51:55;101150.69;;;16.65;100.00
64844;BME280;51310;52.198;5.422;2022-08-19T00:54:27;101153.06;;;16.61;100.00
64844;BME280;51310;52.198;5.422;2022-08-19T00:56:54;101149.91;;;16.66;100.00
64844;BME280;51310;52.198;5.422;2022-08-19T00:59:20;101150.81;;;16.66;100.00
64844;BME280;51310;52.198;5.422;2022-08-19T01:01:47;101149.09;;;16.67;100.00
64844;BME280;51310;52.198;5.422;2022-08-19T01:04:13;101152.56;;;16.55;100.00
64844;BME280;51310;52.198;5.422;2022-08-19T01:06:40;101145.31;;;16.51;100.00
64844;BME280;51310;52.198;5.422;2022-08-19T01:09:07;101149.63;;;16.51;100.00
64844;BME280;51310;52.198;5.422;2022-08-19T01:11:38;101152.34;;;16.52;100.00
64844;BME280;51310;52.198;5.422;2022-08-19T01:14:08;101153.13;;;16.51;100.00
64844;BME280;51310;52.198;5.422;2022-08-19T01:16:35;101147.69;;;16.48;100.00
64844;BME280;51310;52.198;5.422;2022-08-19T01:19:12;101147.44;;;16.45;100.00
64844;BME280;51310;52.198;5.422;2022-08-19T01:22:12;101148.13;;;16.43;100.00
64844;BME280;51310;52.198;5.422;2022-08-19T01:24:42;101148.78;;;16.40;100.00
64844;BME280;51310;52.198;5.422;2022-08-19T01:27:08;101143.59;;;16.40;100.00
64844;BME280;51310;52.198;5.422;2022-08-19T01:29:40;101146.19;;;16.40;100.00
64844;BME280;51310;52.198;5.422;2022-08-19T01:32:12;101142.69;;;16.39;100.00
64844;BME280;51310;52.198;5.422;2022-08-19T01:34:40;101144.94;;;16.35;100.00
64844;BME280;51310;52.198;5.422;2022-08-19T01:37:10;101148.28;;;16.34;100.00
64844;BME280;51310;52.198;5.422;2022-08-19T01:39:39;101149.75;;;16.30;100.00
64844;BME280;51310;52.198;5.422;2022-08-19T01:42:08;101153.81;;;16.27;100.00
64844;BME280;51310;52.198;5.422;2022-08-19T01:44:37;101164.75;;;16.23;100.00
64844;BME280;51310;52.198;5.422;2022-08-19T01:47:04;101156.59;;;16.18;100.00
64844;BME280;51310;52.198;5.422;2022-08-19T01:49:30;101157.00;;;16.12;100.00
64844;BME280;51310;52.198;5.422;2022-08-19T01:51:56;101156.63;;;16.08;100.00
64844;BME280;51310;52.198;5.422;2022-08-19T01:54:24;101154.03;;;16.08;100.00
64844;BME280;51310;52.198;5.422;2022-08-19T01:57:02;101154.16;;;16.09;100.00
64844;BME280;51310;52.198;5.422;2022-08-19T01:59:32;101151.66;;;16.11;100.00
64844;BME280;51310;52.198;5.422;2022-08-19T02:01:58;101155.19;;;16.11;100.00
64844;BME280;51310;52.198;5.422;2022-08-19T02:04:24;101159.59;;;16.12;100.00
64844;BME280;51310;52.198;5.422;2022-08-19T02:06:51;101156.63;;;16.08;100.00
64844;BME280;51310;52.198;5.422;2022-08-19T02:09:17;101161.34;;;16.02;100.00
64844;BME280;51310;52.198;5.422;2022-08-19T02:11:43;101156.81;;;15.99;100.00
64844;BME280;51310;52.198;5.422;2022-08-19T02:14:09;101159.41;;;15.99;100.00
64844;BME280;51310;52.198;5.422;2022-08-19T02:16:36;101161.72;;;15.96;100.00
64844;BME280;51310;52.198;5.422;2022-08-19T02:19:04;101159.28;;;15.97;100.00
64844;BME280;51310;52.198;5.422;2022-08-19T02:21:30;101165.25;;;15.96;100.00
64844;BME280;51310;52.198;5.422;2022-08-19T02:23:57;101155.66;;;15.95;100.00
64844;BME280;51310;52.198;5.422;2022-08-19T02:26:23;101153.94;;;15.96;100.00
64844;BME280;51310;52.198;5.422;2022-08-19T02:28:52;101162.16;;;15.90;100.00
64844;BME280;51310;52.198;5.422;2022-08-19T02:31:23;101164.91;;;15.92;100.00
64844;BME280;51310;52.198;5.422;2022-08-19T02:33:50;101167.38;;;15.90;100.00
64844;BME280;51310;52.198;5.422;2022-08-19T02:36:17;101166.06;;;15.85;100.00
64844;BME280;51310;52.198;5.422;2022-08-19T02:38:44;101176.56;;;15.87;100.00
64844;BME280;51310;52.198;5.422;2022-08-19T02:41:23;101172.84;;;15.83;100.00
64844;BME280;51310;52.198;5.422;2022-08-19T02:43:51;101176.56;;;15.87;100.00
64844;BME280;51310;52.198;5.422;2022-08-19T02:46:25;101175.44;;;15.83;100.00
64844;BME280;51310;52.198;5.422;2022-08-19T02:48:55;101184.91;;;15.83;100.00
64844;BME280;51310;52.198;5.422;2022-08-19T02:51:44;101184.91;;;15.83;100.00
64844;BME280;51310;52.198;5.422;2022-08-19T02:54:13;101185.75;;;15.93;100.00
64844;BME280;51310;52.198;5.422;2022-08-19T02:56:41;101177.31;;;15.96;100.00
64844;BME280;51310;52.198;5.422;2022-08-19T02:59:08;101181.50;;;15.94;100.00
64844;BME280;51310;52.198;5.422;2022-08-19T03:01:36;101180.38;;;15.80;100.00
64844;BME280;51310;52.198;5.422;2022-08-19T03:04:05;101178.81;;;15.82;100.00
64844;BME280;51310;52.198;5.422;2022-08-19T03:06:32;101184.41;;;15.76;100.00
64844;BME280;51310;52.198;5.422;2022-08-19T03:09:00;101184.66;;;15.69;100.00
64844;BME280;51310;52.198;5.422;2022-08-19T03:11:31;101187.00;;;15.66;100.00
64844;BME280;51310;52.198;5.422;2022-08-19T03:13:58;101170.19;;;15.51;100.00
64844;BME280;51310;52.198;5.422;2022-08-19T03:16:28;101165.25;;;15.44;100.00
64844;BME280;51310;52.198;5.422;2022-08-19T03:18:57;101167.19;;;15.46;100.00
64844;BME280;51310;52.198;5.422;2022-08-19T03:21:31;101162.94;;;15.47;100.00
64844;BME280;51310;52.198;5.422;2022-08-19T03:24:05;101159.97;;;15.42;100.00
64844;BME280;51310;52.198;5.422;2022-08-19T03:26:33;101157.25;;;15.41;100.00
64844;BME280;51310;52.198;5.422;2022-08-19T03:29:04;101159.97;;;15.42;100.00
64844;BME280;51310;52.198;5.422;2022-08-19T03:31:31;101159.31;;;15.45;100.00
64844;BME280;51310;52.198;5.422;2022-08-19T03:33:57;101158.38;;;15.44;100.00
64844;BME280;51310;52.198;5.422;2022-08-19T03:36:26;101156.72;;;15.45;100.00
64844;BME280;51310;52.198;5.422;2022-08-19T03:38:57;101157.84;;;15.48;100.00
64844;BME280;51310;52.198;5.422;2022-08-19T03:41:27;101154.38;;;15.37;100.00
64844;BME280;51310;52.198;5.422;2022-08-19T03:43:58;101159.84;;;15.41;100.00
64844;BME280;51310;52.198;5.422;2022-08-19T03:46:28;101163.31;;;15.41;100.00
64844;BME280;51310;52.198;5.422;2022-08-19T03:48:58;101164.38;;;15.33;100.00
64844;BME280;51310;52.198;5.422;2022-08-19T03:51:36;101164.13;;;15.30;100.00
64844;BME280;51310;52.198;5.422;2022-08-19T03:54:09;101165.41;;;15.35;100.00
64844;BME280;51310;52.198;5.422;2022-08-19T03:56:39;101157.25;;;15.30;100.00
64844;BME280;51310;52.198;5.422;2022-08-19T03:59:22;101155.69;;;15.32;100.00
64844;BME280;51310;52.198;5.422;2022-08-19T04:01:58;101152.34;;;15.33;100.00
64844;BME280;51310;52.198;5.422;2022-08-19T04:04:27;101148.72;;;15.31;100.00
64844;BME280;51310;52.198;5.422;2022-08-19T04:06:54;101157.38;;;15.32;100.00
64844;BME280;51310;52.198;5.422;2022-08-19T04:09:20;101155.59;;;15.21;100.00
64844;BME280;51310;52.198;5.422;2022-08-19T04:11:50;101147.53;;;15.17;100.00
64844;BME280;51310;52.198;5.422;2022-08-19T04:14:28;101151.69;;;15.26;100.00
64844;BME280;51310;52.198;5.422;2022-08-19T04:16:56;101143.00;;;15.25;100.00
64844;BME280;51310;52.198;5.422;2022-08-19T04:19:24;101138.88;;;15.27;100.00
64844;BME280;51310;52.198;5.422;2022-08-19T04:21:53;101140.94;;;15.31;100.00
64844;BME280;51310;52.198;5.422;2022-08-19T04:24:22;101138.06;;;15.28;100.00
64844;BME280;51310;52.198;5.422;2022-08-19T04:26:48;101141.84;;;15.32;100.00
64844;BME280;51310;52.198;5.422;2022-08-19T04:29:18;101138.44;;;15.33;100.00
64844;BME280;51310;52.198;5.422;2022-08-19T04:31:48;101140.00;;;15.31;100.00
64844;BME280;51310;52.198;5.422;2022-08-19T04:34:17;101144.81;;;15.26;100.00
64844;BME280;51310;52.198;5.422;2022-08-19T04:36:48;101140.53;;;15.27;100.00
64844;BME280;51310;52.198;5.422;2022-08-19T04:39:20;101144.66;;;15.25;100.00
64844;BME280;51310;52.198;5.422;2022-08-19T04:41:48;101144.28;;;15.20;100.00
64844;BME280;51310;52.198;5.422;2022-08-19T04:44:34;101140.94;;;15.21;100.00
64844;BME280;51310;52.198;5.422;2022-08-19T04:47:02;101131.47;;;15.22;100.00
64844;BME280;51310;52.198;5.422;2022-08-19T04:49:31;101126.81;;;15.17;100.00
64844;BME280;51310;52.198;5.422;2022-08-19T04:51:57;101137.03;;;15.16;100.00
64844;BME280;51310;52.198;5.422;2022-08-19T04:54:25;101138.59;;;15.14;100.00
64844;BME280;51310;52.198;5.422;2022-08-19T04:56:52;101138.59;;;15.14;100.00
64844;BME280;51310;52.198;5.422;2022-08-19T04:59:19;101135.75;;;15.11;100.00
64844;BME280;51310;52.198;5.422;2022-08-19T05:01:47;101137.69;;;15.13;100.00
64844;BME280;51310;52.198;5.422;2022-08-19T05:04:19;101148.97;;;15.14;100.00
64844;BME280;51310;52.198;5.422;2022-08-19T05:06:49;101148.97;;;15.14;100.00
64844;BME280;51310;52.198;5.422;2022-08-19T05:09:16;101146.38;;;15.14;100.00
64844;BME280;51310;52.198;5.422;2022-08-19T05:11:43;101161.56;;;15.20;100.00
64844;BME280;51310;52.198;5.422;2022-08-19T05:14:10;101153.50;;;15.27;100.00
64844;BME280;51310;52.198;5.422;2022-08-19T05:16:39;101165.31;;;15.33;100.00
64844;BME280;51310;52.198;5.422;2022-08-19T05:19:05;101163.47;;;15.32;100.00
64844;BME280;51310;52.198;5.422;2022-08-19T05:21:50;101165.53;;;15.47;100.00
64844;BME280;51310;52.198;5.422;2022-08-19T05:24:36;101161.31;;;15.69;100.00
64844;BME280;51310;52.198;5.422;2022-08-19T05:27:04;101161.00;;;15.87;100.00
64844;BME280;51310;52.198;5.422;2022-08-19T05:29:32;101157.56;;;15.98;100.00
64844;BME280;51310;52.198;5.422;2022-08-19T05:32:05;101158.56;;;16.10;100.00
64844;BME280;51310;52.198;5.422;2022-08-19T05:34:34;101154.38;;;16.34;100.00
64844;BME280;51310;52.198;5.422;2022-08-19T05:37:02;101164.00;;;16.57;100.00
64844;BME280;51310;52.198;5.422;2022-08-19T05:39:33;101156.00;;;16.66;100.00
64844;BME280;51310;52.198;5.422;2022-08-19T05:42:07;101157.81;;;16.89;100.00
64844;BME280;51310;52.198;5.422;2022-08-19T05:44:39;101163.84;;;17.12;100.00
64844;BME280;51310;52.198;5.422;2022-08-19T05:47:09;101158.66;;;17.35;100.00
64844;BME280;51310;52.198;5.422;2022-08-19T05:49:37;101162.66;;;17.54;100.00
64844;BME280;51310;52.198;5.422;2022-08-19T05:52:10;101160.38;;;17.58;100.00
64844;BME280;51310;52.198;5.422;2022-08-19T05:54:40;101165.19;;;17.77;100.00
64844;BME280;51310;52.198;5.422;2022-08-19T05:57:08;101157.75;;;17.94;100.00
64844;BME280;51310;52.198;5.422;2022-08-19T05:59:34;101150.72;;;18.04;100.00
64844;BME280;51310;52.198;5.422;2022-08-19T06:02:01;101153.31;;;18.04;100.00
64844;BME280;51310;52.198;5.422;2022-08-19T06:04:28;101158.28;;;18.13;100.00
64844;BME280;51310;52.198;5.422;2022-08-19T06:06:54;101160.88;;;18.13;100.00
64844;BME280;51310;52.198;5.422;2022-08-19T06:09:22;101152.28;;;18.14;100.00
64844;BME280;51310;52.198;5.422;2022-08-19T06:11:53;101159.13;;;17.89;100.00
64844;BME280;51310;52.198;5.422;2022-08-19T06:14:25;101156.16;;;17.96;100.00
64844;BME280;51310;52.198;5.422;2022-08-19T06:16:53;101158.97;;;17.99;100.00
64844;BME280;51310;52.198;5.422;2022-08-19T06:19:21;101160.16;;;17.91;100.00
64844;BME280;51310;52.198;5.422;2022-08-19T06:21:51;101152.19;;;18.01;100.00
64844;BME280;51310;52.198;5.422;2022-08-19T06:24:22;101157.50;;;18.14;100.00
64844;BME280;51310;52.198;5.422;2022-08-19T06:26:51;101153.50;;;18.19;100.00
64844;BME280;51310;52.198;5.422;2022-08-19T06:29:21;101153.81;;;18.36;100.00
64844;BME280;51310;52.198;5.422;2022-08-19T06:31:52;101156.16;;;18.44;100.00
64844;BME280;51310;52.198;5.422;2022-08-19T06:34:19;101158.25;;;18.50;100.00
64844;BME280;51310;52.198;5.422;2022-08-19T06:36:49;101166.06;;;18.62;100.00
64844;BME280;51310;52.198;5.422;2022-08-19T06:39:22;101154.59;;;18.60;100.00
64844;BME280;51310;52.198;5.422;2022-08-19T06:41:57;101158.31;;;18.63;100.00
64844;BME280;51310;52.198;5.422;2022-08-19T06:44:28;101167.72;;;18.61;100.00
64844;BME280;51310;52.198;5.422;2022-08-19T06:47:07;101167.66;;;18.60;100.00
64844;BME280;51310;52.198;5.422;2022-08-19T06:49:35;101167.84;;;18.63;100.00
64844;BME280;51310;52.198;5.422;2022-08-19T06:52:03;101167.53;;;18.58;100.00
64844;BME280;51310;52.198;5.422;2022-08-19T06:54:30;101163.22;;;18.59;100.00
64844;BME280;51310;52.198;5.422;2022-08-19T06:56:58;101170.53;;;18.39;100.00
64844;BME280;51310;52.198;5.422;2022-08-19T06:59:28;101165.50;;;18.54;100.00
64844;BME280;51310;52.198;5.422;2022-08-19T07:02:00;101168.94;;;18.41;100.00
64844;BME280;51310;52.198;5.422;2022-08-19T07:04:32;101167.69;;;18.48;100.00
64844;BME280;51310;52.198;5.422;2022-08-19T07:07:05;101171.03;;;18.34;100.00
64844;BME280;51310;52.198;5.422;2022-08-19T07:09:38;101172.19;;;18.51;100.00
64844;BME280;51310;52.198;5.422;2022-08-19T07:12:09;101169.75;;;18.65;100.00
64844;BME280;51310;52.198;5.422;2022-08-19T07:14:38;101174.94;;;18.77;100.00
64844;BME280;51310;52.198;5.422;2022-08-19T07:17:08;101176.75;;;18.78;100.00
64844;BME280;51310;52.198;5.422;2022-08-19T07:19:37;101173.09;;;18.76;100.00
64844;BME280;51310;52.198;5.422;2022-08-19T07:22:06;101185.31;;;18.89;100.00
64844;BME280;51310;52.198;5.422;2022-08-19T07:24:33;101191.16;;;18.98;100.00
64844;BME280;51310;52.198;5.422;2022-08-19T07:27:03;101179.84;;;18.73;100.00
64844;BME280;51310;52.198;5.422;2022-08-19T07:29:33;101183.47;;;18.75;100.00
64844;BME280;51310;52.198;5.422;2022-08-19T07:32:01;101180.81;;;18.87;100.00
64844;BME280;51310;52.198;5.422;2022-08-19T07:34:31;101179.22;;;18.89;100.00
64844;BME280;51310;52.198;5.422;2022-08-19T07:37:06;101184.47;;;18.77;100.00
64844;BME280;51310;52.198;5.422;2022-08-19T07:39:35;101189.44;;;18.85;100.00
64844;BME280;51310;52.198;5.422;2022-08-19T07:42:07;101189.06;;;18.93;100.00
64844;BME280;51310;52.198;5.422;2022-08-19T07:44:37;101185.03;;;18.98;100.00
64844;BME280;51310;52.198;5.422;2022-08-19T07:47:04;101180.56;;;19.09;100.00
64844;BME280;51310;52.198;5.422;2022-08-19T07:49:31;101188.81;;;19.15;100.00
64844;BME280;51310;52.198;5.422;2022-08-19T07:52:02;101195.66;;;19.26;100.00
64844;BME280;51310;52.198;5.422;2022-08-19T07:54:33;101195.44;;;19.23;100.00
64844;BME280;51310;52.198;5.422;2022-08-19T07:57:01;101188.47;;;19.35;100.00
64844;BME280;51310;52.198;5.422;2022-08-19T07:59:29;101209.13;;;19.59;100.00
64844;BME280;51310;52.198;5.422;2022-08-19T08:01:56;101201.22;;;19.44;100.00
64844;BME280;51310;52.198;5.422;2022-08-19T08:04:25;101204.91;;;19.47;100.00
64844;BME280;51310;52.198;5.422;2022-08-19T08:07:10;101204.44;;;19.40;100.00
64844;BME280;51310;52.198;5.422;2022-08-19T08:09:54;101208.53;;;19.36;100.00
64844;BME280;51310;52.198;5.422;2022-08-19T08:12:31;101220.69;;;19.49;100.00
64844;BME280;51310;52.198;5.422;2022-08-19T08:15:06;101214.44;;;19.34;100.00
64844;BME280;51310;52.198;5.422;2022-08-19T08:17:35;101223.72;;;19.03;100.00
64844;BME280;51310;52.198;5.422;2022-08-19T08:20:05;101222.75;;;19.28;100.00
64844;BME280;51310;52.198;5.422;2022-08-19T08:22:32;101229.66;;;19.53;100.00
64844;BME280;51310;52.198;5.422;2022-08-19T08:25:20;101232.22;;;19.39;100.00
64844;BME280;51310;52.198;5.422;2022-08-19T08:27:49;101233.84;;;19.37;100.00
64844;BME280;51310;52.198;5.422;2022-08-19T08:30:25;101233.00;;;19.25;100.00
64844;BME280;51310;52.198;5.422;2022-08-19T08:32:52;101240.13;;;19.27;100.00
64844;BME280;51310;52.198;5.422;2022-08-19T08:35:23;101243.31;;;19.23;100.00
64844;BME280;51310;52.198;5.422;2022-08-19T08:37:53;101248.56;;;19.37;100.00
64844;BME280;51310;52.198;5.422;2022-08-19T08:40:47;101240.69;;;19.49;100.00
64844;BME280;51310;52.198;5.422;2022-08-19T08:43:28;101256.81;;;19.81;100.00
64844;BME280;51310;52.198;5.422;2022-08-19T08:46:12;101253.41;;;20.09;97.49
64844;BME280;51310;52.198;5.422;2022-08-19T08:52:07;101248.31;;;20.52;93.34
64844;BME280;51310;52.198;5.422;2022-08-19T08:54:47;101245.06;;;20.69;92.72
64844;BME280;51310;52.198;5.422;2022-08-19T08:57:24;101247.06;;;21.02;92.31
64844;BME280;51310;52.198;5.422;2022-08-19T08:59:56;101256.00;;;21.20;90.01
64844;BME280;51310;52.198;5.422;2022-08-19T09:02:23;101243.81;;;21.21;89.55
64844;BME280;51310;52.198;5.422;2022-08-19T09:04:49;101247.16;;;21.18;89.97
64844;BME280;51310;52.198;5.422;2022-08-19T09:10:37;101254.00;;;21.16;88.75
64844;BME280;51310;52.198;5.422;2022-08-19T09:13:28;101243.44;;;21.00;87.60
64844;BME280;51310;52.198;5.422;2022-08-19T09:16:18;101249.47;;;21.57;86.48
64844;BME280;51310;52.198;5.422;2022-08-19T09:18:52;101250.31;;;22.02;84.79
64844;BME280;51310;52.198;5.422;2022-08-19T09:21:23;101260.47;;;21.96;84.90
64844;BME280;51310;52.198;5.422;2022-08-19T09:23:51;101251.44;;;21.90;83.44
64844;BME280;51310;52.198;5.422;2022-08-19T09:26:21;101256.44;;;21.56;84.23
64844;BME280;51310;52.198;5.422;2022-08-19T09:28:52;101254.84;;;21.30;85.71
64844;BME280;51310;52.198;5.422;2022-08-19T09:31:25;101256.91;;;21.49;85.01
64844;BME280;51310;52.198;5.422;2022-08-19T09:33:54;101259.03;;;21.86;84.59
64844;BME280;51310;52.198;5.422;2022-08-19T09:36:25;101251.84;;;21.98;82.89
64844;BME280;51310;52.198;5.422;2022-08-19T09:38:54;101259.09;;;21.87;82.58
64844;BME280;51310;52.198;5.422;2022-08-19T09:41:24;101258.34;;;22.05;81.50
64844;BME280;51310;52.198;5.422;2022-08-19T09:43:53;101259.28;;;22.05;80.89
64844;BME280;51310;52.198;5.422;2022-08-19T09:46:23;101263.66;;;22.21;81.64
64844;BME280;51310;52.198;5.422;2022-08-19T09:48:53;101252.31;;;22.06;80.57
64844;BME280;51310;52.198;5.422;2022-08-19T09:51:25;101248.75;;;22.20;80.70
64844;BME280;51310;52.198;5.422;2022-08-19T09:53:59;101244.59;;;22.09;80.89
64844;BME280;51310;52.198;5.422;2022-08-19T09:56:27;101257.13;;;22.44;79.39
64844;BME280;51310;52.198;5.422;2022-08-19T09:58:53;101254.28;;;22.10;80.92
64844;BME280;51310;52.198;5.422;2022-08-19T10:01:23;101251.66;;;22.10;80.74
64844;BME280;51310;52.198;5.422;2022-08-19T10:03:54;101255.19;;;22.25;80.30
64844;BME280;51310;52.198;5.422;2022-08-19T10:06:24;101251.44;;;22.37;80.23
64844;BME280;51310;52.198;5.422;2022-08-19T10:08:52;101251.91;;;22.29;79.83
64844;BME280;51310;52.198;5.422;2022-08-19T10:11:20;101242.28;;;22.61;80.08
64844;BME280;51310;52.198;5.422;2022-08-19T10:13:46;101253.28;;;22.87;77.51
64844;BME280;51310;52.198;5.422;2022-08-19T10:16:20;101254.53;;;23.10;76.81
64844;BME280;51310;52.198;5.422;2022-08-19T10:18:49;101256.97;;;22.90;75.99
64844;BME280;51310;52.198;5.422;2022-08-19T10:21:29;101253.94;;;22.66;75.85
64844;BME280;51310;52.198;5.422;2022-08-19T10:24:01;101253.13;;;22.84;75.04
64844;BME280;51310;52.198;5.422;2022-08-19T10:26:38;101246.56;;;22.59;76.27
64844;BME280;51310;52.198;5.422;2022-08-19T10:29:07;101249.97;;;22.42;75.74
64844;BME280;51310;52.198;5.422;2022-08-19T10:31:34;101248.34;;;22.60;75.98
64844;BME280;51310;52.198;5.422;2022-08-19T10:34:01;101247.78;;;22.49;74.55
64844;BME280;51310;52.198;5.422;2022-08-19T10:36:34;101243.56;;;22.37;75.48
64844;BME280;51310;52.198;5.422;2022-08-19T10:39:07;101238.50;;;22.56;75.89
64844;BME280;51310;52.198;5.422;2022-08-19T10:41:37;101242.72;;;22.85;75.04
64844;BME280;51310;52.198;5.422;2022-08-19T10:44:08;101238.03;;;23.12;72.70
64844;BME280;51310;52.198;5.422;2022-08-19T10:46:42;101237.31;;;23.49;73.24
64844;BME280;51310;52.198;5.422;2022-08-19T10:49:11;101240.09;;;23.87;70.79
64844;BME280;51310;52.198;5.422;2022-08-19T10:51:39;101238.50;;;23.90;70.53
64844;BME280;51310;52.198;5.422;2022-08-19T10:54:24;101244.38;;;23.85;70.35
64844;BME280;51310;52.198;5.422;2022-08-19T10:57:11;101233.94;;;24.04;70.47
64844;BME280;51310;52.198;5.422;2022-08-19T10:59:37;101234.91;;;24.06;69.99
64844;BME280;51310;52.198;5.422;2022-08-19T11:02:07;101234.75;;;24.21;69.05
64844;BME280;51310;52.198;5.422;2022-08-19T11:04:37;101224.69;;;23.60;71.17
64844;BME280;51310;52.198;5.422;2022-08-19T11:07:05;101228.63;;;23.50;72.54
64844;BME280;51310;52.198;5.422;2022-08-19T11:09:37;101222.78;;;23.74;72.30
64844;BME280;51310;52.198;5.422;2022-08-19T11:12:06;101221.56;;;23.67;72.66
64844;BME280;51310;52.198;5.422;2022-08-19T11:14:34;101223.13;;;23.80;72.25
64844;BME280;51310;52.198;5.422;2022-08-19T11:17:02;101225.50;;;23.75;72.49
64844;BME280;51310;52.198;5.422;2022-08-19T11:19:30;101220.41;;;23.79;72.71
64844;BME280;51310;52.198;5.422;2022-08-19T11:21:56;101219.84;;;23.68;73.89
64844;BME280;51310;52.198;5.422;2022-08-19T11:24:25;101211.06;;;24.03;73.19
64844;BME280;51310;52.198;5.422;2022-08-19T11:26:55;101214.63;;;24.23;71.65
64844;BME280;51310;52.198;5.422;2022-08-19T11:29:28;101211.63;;;24.33;70.58
64844;BME280;51310;52.198;5.422;2022-08-19T11:31:55;101209.75;;;24.31;69.81
64844;BME280;51310;52.198;5.422;2022-08-19T11:34:24;101209.34;;;24.04;71.27
64844;BME280;51310;52.198;5.422;2022-08-19T11:36:54;101204.78;;;23.82;72.03
64844;BME280;51310;52.198;5.422;2022-08-19T11:39:26;101208.69;;;23.90;72.16
64844;BME280;51310;52.198;5.422;2022-08-19T11:41:54;101203.38;;;24.26;71.03
64844;BME280;51310;52.198;5.422;2022-08-19T11:44:20;101201.59;;;24.62;69.02
64844;BME280;51310;52.198;5.422;2022-08-19T11:46:46;101203.19;;;24.59;69.30
64844;BME280;51310;52.198;5.422;2022-08-19T11:49:15;101201.50;;;24.80;68.34
64844;BME280;51310;52.198;5.422;2022-08-19T11:51:42;101202.41;;;24.24;70.49
64844;BME280;51310;52.198;5.422;2022-08-19T11:54:09;101203.50;;;24.29;70.75
64844;BME280;51310;52.198;5.422;2022-08-19T11:56:37;101212.13;;;24.44;70.59
64844;BME280;51310;52.198;5.422;2022-08-19T11:59:04;101210.19;;;24.77;69.45
64844;BME280;51310;52.198;5.422;2022-08-19T12:01:30;101201.84;;;24.88;68.84
64844;BME280;51310;52.198;5.422;2022-08-19T12:03:57;101213.97;;;24.84;70.14
64844;BME280;51310;52.198;5.422;2022-08-19T12:06:30;101208.22;;;24.93;68.39
64844;BME280;51310;52.198;5.422;2022-08-19T12:09:04;101205.94;;;24.81;68.18
64844;BME280;51310;52.198;5.422;2022-08-19T12:11:33;101215.09;;;24.14;72.45
64844;BME280;51310;52.198;5.422;2022-08-19T12:13:59;101219.94;;;23.87;74.33
64844;BME280;51310;52.198;5.422;2022-08-19T12:16:28;101213.72;;;23.85;74.87
64844;BME280;51310;52.198;5.422;2022-08-19T12:18:56;101219.50;;;23.78;75.33
64844;BME280;51310;52.198;5.422;2022-08-19T12:21:26;101224.66;;;23.59;76.32
64844;BME280;51310;52.198;5.422;2022-08-19T12:23:57;101226.31;;;23.22;78.65
64844;BME280;51310;52.198;5.422;2022-08-19T12:26:26;101223.13;;;23.11;80.46
64844;BME280;51310;52.198;5.422;2022-08-19T12:28:54;101227.38;;;22.60;88.71
64844;BME280;51310;52.198;5.422;2022-08-19T12:31:21;101230.03;;;21.68;95.42
64844;BME280;51310;52.198;5.422;2022-08-19T12:33:47;101228.72;;;21.02;100.00
64844;BME280;51310;52.198;5.422;2022-08-19T12:36:15;101231.31;;;20.59;100.00
64844;BME280;51310;52.198;5.422;2022-08-19T12:38:42;101226.41;;;20.23;100.00
64844;BME280;51310;52.198;5.422;2022-08-19T12:41:13;101234.50;;;20.00;100.00
64844;BME280;51310;52.198;5.422;2022-08-19T12:43:40;101229.56;;;19.91;100.00
64844;BME280;51310;52.198;5.422;2022-08-19T12:46:09;101234.91;;;19.93;100.00
64844;BME280;51310;52.198;5.422;2022-08-19T12:48:37;101238.03;;;20.00;100.00
64844;BME280;51310;52.198;5.422;2022-08-19T12:51:11;101234.69;;;20.03;100.00
64844;BME280;51310;52.198;5.422;2022-08-19T12:53:41;101239.63;;;19.98;100.00
64844;BME280;51310;52.198;5.422;2022-08-19T12:56:10;101234.69;;;20.03;100.00
64844;BME280;51310;52.198;5.422;2022-08-19T12:58:37;101231.69;;;19.97;100.00
64844;BME280;51310;52.198;5.422;2022-08-19T13:01:12;101222.84;;;19.95;100.00
64844;BME280;51310;52.198;5.422;2022-08-19T13:03:40;101219.31;;;20.07;100.00
64844;BME280;51310;52.198;5.422;2022-08-19T13:06:08;101221.00;;;20.20;100.00